Date,TemperatureHighF,TemperatureAvgF,TemperatureLowF,DewpointHighF,DewpointAvgF,DewpointLowF,HumidityHigh,HumidityAvg,HumidityLow,PressureMaxIn,PressureMinIn,WindSpeedMaxMPH,WindSpeedAvgMPH,GustSpeedMaxMPH,PrecipitationSumIn
2013-1-1,20,9,-1,13,5,-4,89,83,72,30.74,30.59,10,1,10,0.00
2013-1-2,19,4,-5,12,0,-9,90,83,70,30.87,30.71,4,0,4,0.00
2013-1-3,23,4,-9,9,-2,-13,89,78,47,30.90,30.80,4,0,4,0.00
2013-1-4,27,7,-6,11,0,-9,91,75,44,30.83,30.67,8,1,8,0.00
2013-1-5,30,11,-2,15,5,-6,91,76,49,30.83,30.62,4,0,4,0.00
2013-1-6,36,19,6,18,10,3,91,73,39,30.62,30.29,5,0,5,0.00
2013-1-7,34,18,2,22,9,-1,90,70,40,30.44,30.33,6,1,6,0.00
2013-1-8,36,31,26,28,26,22,87,81,69,30.46,30.31,12,2,12,0.00
2013-1-9,45,28,11,24,19,9,96,72,39,30.49,29.93,21,3,21,0.01
2013-1-10,41,31,18,28,20,12,93,67,43,29.94,29.44,28,9,28,0.01
2013-1-11,18,14,11,13,9,6,87,79,69,30.17,29.54,13,2,13,0.00
2013-1-12,13,6,-2,8,1,-6,88,80,66,30.41,30.16,14,2,14,0.00
2013-1-13,8,-2,-13,0,-7,-17,85,80,70,30.67,30.41,8,1,8,0.00
2013-1-14,7,-5,-17,-2,-10,-22,85,78,62,30.91,30.67,12,1,12,0.00
2013-1-15,17,10,2,11,4,-2,90,79,71,30.93,30.85,11,2,12,0.00
2013-1-16,24,13,5,17,9,2,89,84,74,30.97,30.86,4,1,4,0.00
2013-1-17,28,10,-3,19,6,-7,92,82,65,31.00,30.84,5,0,5,0.00
2013-1-18,33,14,-1,19,8,-4,93,78,49,30.86,30.69,5,1,5,0.00
2013-1-19,35,17,2,19,10,-1,92,76,48,30.83,30.69,4,1,4,0.00
2013-1-20,35,16,0,16,8,-3,93,74,40,30.75,30.64,7,1,7,0.00
2013-1-21,37,18,3,20,10,0,91,73,42,30.76,30.61,4,1,4,0.00
2013-1-22,39,19,5,19,10,1,92,71,37,30.68,30.55,4,0,4,0.00
2013-1-23,45,25,11,26,15,7,87,70,35,30.60,30.42,4,1,4,0.09
2013-1-24,38,33,26,36,30,20,96,88,76,30.43,30.26,4,0,4,0.29
2013-1-25,40,34,29,35,32,28,98,93,80,30.35,30.17,6,0,6,0.25
2013-1-26,32,30,29,30,29,27,96,95,94,30.18,30.15,1,0,3,0.00
2013-1-27,39,30,24,34,27,18,97,88,71,29.87,29.66,18,3,18,0.09
2013-1-28,24,19,14,19,13,9,87,78,57,30.13,29.86,12,4,12,0.00
2013-1-29,26,18,10,18,13,7,90,80,65,30.39,30.07,14,2,14,0.00
2013-1-30,35,27,20,28,22,16,92,82,74,30.40,30.28,26,6,26,0.01
2013-1-31,36,33,31,26,25,24,84,74,64,30.41,30.32,15,5,17,0.08
2013-2-1,39,29,20,28,23,15,92,77,58,30.55,30.31,12,2,12,0.05
2013-2-2,38,23,10,23,16,7,93,77,42,30.70,30.55,6,1,6,0.00
2013-2-3,40,26,17,18,16,12,92,69,35,30.56,30.28,10,1,10,0.00
2013-2-4,40,23,10,21,14,7,92,70,41,30.42,30.32,12,1,12,0.03
2013-2-5,44,29,17,26,19,13,85,67,37,30.38,30.01,5,1,5,0.11
2013-2-6,39,30,16,22,19,12,84,64,38,30.27,29.99,15,2,15,0.01
2013-2-7,40,24,7,17,11,4,89,63,25,30.35,30.08,18,5,18,0.00
2013-2-8,38,30,24,28,22,16,91,73,53,30.09,29.66,25,5,25,0.01
2013-2-9,29,24,19,24,19,15,92,84,73,29.95,29.71,12,2,12,0.03
2013-2-10,27,20,13,18,14,10,90,81,63,30.19,29.95,10,2,10,0.01
2013-2-11,25,14,5,15,8,1,90,77,52,30.51,30.19,12,1,12,0.00
2013-2-12,28,17,2,20,11,-1,90,79,65,30.65,30.51,12,2,12,0.00
2013-2-13,38,27,16,26,21,13,91,78,60,30.60,30.35,15,2,15,0.01
2013-2-14,36,29,18,25,20,14,86,71,46,30.53,30.31,14,5,14,0.01
2013-2-15,37,26,18,24,19,14,87,75,56,30.66,30.52,13,2,13,0.00
2013-2-16,43,25,10,23,16,8,94,71,35,30.64,30.21,4,1,4,0.01
2013-2-17,38,26,16,23,16,10,81,66,43,30.21,29.92,20,4,20,0.00
2013-2-18,32,19,5,16,10,2,92,70,47,30.36,30.18,5,1,5,0.00
2013-2-19,41,30,18,16,11,7,67,46,32,30.18,29.68,27,7,27,0.00
2013-2-20,38,30,24,24,19,13,77,66,51,29.78,29.61,12,3,12,0.00
2013-2-21,29,23,15,20,15,9,85,70,58,30.16,29.78,15,5,15,0.00
2013-2-22,29,19,12,18,12,7,89,73,48,30.30,30.16,14,2,14,0.00
2013-2-23,27,20,16,23,15,12,90,80,70,30.25,29.88,20,4,20,0.00
2013-2-24,27,19,8,16,12,4,85,73,58,30.47,30.11,15,5,16,0.06
2013-2-25,31,16,0,17,8,-3,91,71,46,30.53,30.26,12,2,12,0.03
2013-2-26,28,21,9,19,13,4,86,71,54,30.49,30.21,17,5,17,0.00
2013-2-27,30,14,-1,14,6,-4,91,71,36,30.74,30.50,12,2,12,0.01
2013-2-28,38,22,5,22,12,2,89,67,44,30.75,30.67,13,1,13,0.03
2013-3-1,44,35,26,31,27,20,89,71,56,30.68,30.49,12,4,12,0.00
2013-3-2,48,32,19,29,24,16,95,74,43,30.58,30.21,9,1,9,0.00
2013-3-3,38,33,28,36,30,24,96,89,80,30.21,29.92,12,1,12,0.23
2013-3-4,35,27,13,32,15,5,92,64,36,30.40,29.93,21,5,21,0.04
2013-3-5,48,27,8,17,10,3,86,55,19,30.51,30.14,18,2,18,0.01
2013-3-6,52,40,28,32,22,15,90,50,30,30.14,29.75,26,7,26,0.01
2013-3-7,45,36,31,31,29,26,91,77,49,29.94,29.83,10,2,10,0.00
2013-3-8,43,35,31,33,30,27,95,84,53,29.92,29.70,14,2,14,0.04
2013-3-9,39,32,24,31,26,15,95,77,52,30.30,29.72,20,4,20,0.29
2013-3-10,43,30,15,24,17,12,90,63,34,30.48,30.30,16,2,16,0.05
2013-3-11,44,35,23,29,23,17,80,62,45,30.42,30.21,20,5,20,0.00
2013-3-12,49,40,31,33,30,27,89,69,47,30.30,30.21,14,4,14,0.01
2013-3-13,58,40,25,33,28,23,94,66,33,30.44,30.29,9,1,9,0.00
2013-3-14,65,44,27,30,26,23,86,57,21,30.35,30.15,10,1,10,0.00
2013-3-15,60,45,30,33,26,20,85,53,22,30.15,29.95,15,2,15,0.00
2013-3-16,50,38,28,30,23,14,85,58,26,29.96,29.82,15,3,15,0.00
2013-3-17,41,34,27,32,23,13,89,65,49,30.02,29.76,23,7,23,0.09
2013-3-18,41,32,25,22,18,15,83,57,36,30.17,30.02,25,5,25,0.00
2013-3-19,47,34,21,18,9,-7,73,40,11,30.30,30.16,12,2,12,0.00
2013-3-20,42,35,27,38,27,12,94,74,49,30.23,29.82,9,1,9,0.14
2013-3-21,42,30,19,34,22,11,95,73,44,30.05,29.69,24,7,24,0.30
2013-3-22,27,21,17,20,15,8,90,75,47,30.16,30.00,20,3,20,0.01
2013-3-23,29,20,10,18,12,7,89,74,48,30.41,30.16,18,4,18,0.01
2013-3-24,31,17,5,19,10,1,91,74,45,30.46,30.39,14,2,14,0.01
2013-3-25,43,26,6,24,15,4,91,66,41,30.46,30.22,10,2,10,0.01
2013-3-26,54,37,26,31,24,20,90,62,27,30.22,29.92,15,3,15,0.00
2013-3-27,57,39,23,32,25,21,94,62,27,30.08,29.99,9,2,9,0.00
2013-3-28,62,44,28,31,26,23,85,54,25,30.05,29.94,12,3,12,0.00
2013-3-29,57,45,32,34,30,27,89,60,32,30.15,30.04,18,3,18,0.00
2013-3-30,58,42,27,34,27,23,90,60,28,30.19,30.12,16,3,16,0.00
2013-3-31,64,43,24,30,23,10,91,54,14,30.15,29.92,14,2,14,0.00
2013-4-1,50,41,33,39,35,26,94,80,55,29.96,29.79,18,2,18,0.32
2013-4-2,49,39,32,39,33,31,97,82,52,30.10,29.92,10,1,10,0.89
2013-4-3,58,43,28,40,30,26,97,66,31,30.20,30.10,13,2,13,0.00
2013-4-4,65,47,29,35,29,24,90,55,25,30.14,29.85,16,2,16,0.00
2013-4-5,53,44,31,40,33,27,94,67,37,29.96,29.75,18,4,18,0.22
2013-4-6,53,39,29,38,30,26,91,72,37,30.04,29.95,10,2,10,0.03
2013-4-7,56,42,29,35,30,25,93,64,36,29.98,29.56,21,3,21,0.00
2013-4-8,48,36,23,34,30,20,96,82,35,29.57,29.31,15,4,15,0.31
2013-4-9,27,22,16,21,15,13,92,78,55,30.34,29.57,17,6,17,0.04
2013-4-10,43,30,12,29,19,9,89,67,46,30.40,30.08,13,3,13,0.61
2013-4-11,48,38,33,36,31,28,96,78,47,30.09,29.91,14,3,14,0.14
2013-4-12,53,40,27,32,26,22,93,63,31,30.02,29.86,17,3,17,0.00
2013-4-13,49,38,31,37,29,21,93,72,37,29.87,29.51,16,4,16,0.29
2013-4-14,43,32,24,24,12,5,87,46,25,29.89,29.71,20,6,20,0.03
2013-4-15,38,32,26,32,26,22,94,81,61,29.76,29.66,10,2,10,0.17
2013-4-16,32,29,25,26,22,16,91,75,59,30.02,29.67,13,4,13,0.07
2013-4-17,36,26,20,23,15,11,75,61,40,30.31,30.02,20,6,20,0.00
2013-4-18,41,31,20,16,9,1,58,40,27,30.39,30.30,18,6,18,0.00
2013-4-19,49,34,21,34,24,14,90,66,46,30.38,30.06,15,2,15,0.04
2013-4-20,46,38,32,37,32,28,96,80,56,30.15,29.99,17,4,17,0.17
2013-4-21,55,41,24,33,27,22,95,62,34,30.21,29.97,13,3,13,0.01
2013-4-22,44,39,30,33,26,15,83,60,34,30.10,29.91,14,6,14,0.01
2013-4-23,44,33,21,24,15,3,84,52,20,30.27,30.10,14,4,14,0.00
2013-4-24,54,39,24,21,15,4,74,42,15,30.28,30.12,12,2,12,0.00
2013-4-25,56,40,22,24,17,-4,83,45,12,30.14,29.98,18,4,18,0.00
2013-4-26,61,44,24,25,18,11,75,40,18,30.26,30.12,15,3,15,0.00
2013-4-27,65,47,28,27,23,17,81,44,17,30.28,30.08,14,3,14,0.00
2013-4-28,69,51,32,33,29,26,79,47,22,30.08,29.83,18,3,18,0.00
2013-4-29,66,52,32,34,29,25,84,47,26,29.88,29.61,16,4,16,0.00
2013-4-30,53,46,33,32,19,4,64,35,20,29.97,29.59,21,7,21,0.00
2013-5-1,43,34,28,26,14,4,64,44,30,30.63,29.97,18,6,18,0.00
2013-5-2,58,39,19,23,16,5,81,44,13,30.75,30.42,14,2,14,0.00
2013-5-3,63,46,25,24,19,9,80,41,12,30.42,29.93,16,3,16,0.00
2013-5-4,63,46,28,33,23,18,71,43,18,29.94,29.76,12,2,12,0.00
2013-5-5,66,51,36,37,31,26,74,49,23,29.88,29.72,16,3,16,0.00
2013-5-6,63,50,41,39,34,28,81,57,29,29.83,29.73,16,3,16,0.00
2013-5-7,59,48,37,42,36,28,94,67,33,29.89,29.77,20,3,20,0.01
2013-5-8,58,44,32,45,38,30,93,80,49,30.06,29.89,16,2,16,0.11
2013-5-9,68,50,31,44,34,24,98,62,22,30.12,29.97,21,3,21,0.00
2013-5-10,69,53,35,41,34,27,90,53,21,30.15,30.01,14,2,14,0.00
2013-5-11,71,54,34,39,32,26,89,50,21,30.23,30.11,12,2,12,0.00
2013-5-12,76,57,36,38,32,29,81,45,20,30.20,30.01,14,2,14,0.00
2013-5-13,83,62,40,42,35,29,79,42,15,30.05,29.80,12,2,12,0.00
2013-5-14,81,62,44,43,36,25,69,41,15,29.82,29.65,16,2,16,0.00
2013-5-15,79,63,46,44,37,30,73,42,17,29.73,29.57,16,4,16,0.00
2013-5-16,76,61,45,44,39,30,80,47,20,29.65,29.50,22,4,22,0.00
2013-5-17,63,51,43,45,40,33,88,66,34,29.79,29.58,22,3,22,0.02
2013-5-18,54,46,38,44,39,32,96,80,47,29.95,29.78,20,3,20,0.28
2013-5-19,56,44,36,43,37,33,96,76,44,30.04,29.93,20,4,20,0.39
2013-5-20,57,48,41,46,40,36,90,75,55,30.05,29.98,12,4,12,0.04
2013-5-21,66,51,33,44,34,24,97,60,21,30.04,29.68,10,2,10,0.00
2013-5-22,76,58,42,38,32,23,68,41,16,29.68,29.36,27,7,27,0.00
2013-5-23,72,51,32,38,30,24,83,51,18,29.84,29.52,23,5,23,0.00
2013-5-24,70,52,31,33,25,13,83,42,11,29.95,29.81,12,2,12,0.00
2013-5-25,74,57,39,35,27,17,72,38,14,29.82,29.68,17,4,17,0.00
2013-5-26,75,60,41,31,25,16,60,30,11,29.74,29.62,17,4,17,0.00
2013-5-27,68,56,42,39,33,26,73,44,23,29.73,29.62,10,1,10,0.00
2013-5-28,56,47,41,42,38,27,92,72,37,29.76,29.51,0,0,0,0.24
2013-5-29,56,46,37,40,36,31,95,73,40,29.82,29.73,0,0,0,0.11
2013-5-30,57,45,33,42,34,29,97,69,39,29.94,29.81,0,0,0,0.03
2013-5-31,60,48,32,32,26,16,92,48,24,30.17,29.94,0,0,0,0.00
2013-6-1,61,36,29,39,27,24,86,70,33,30.21,30.15,0,0,0,0.00
2013-10-18,69,59,43,39,30,13,45,34,18,29.89,29.86,0,0,0,0.00